sensor_id;sensor_type;location;lat;lon;timestamp;P1;durP1;ratioP1;P2;durP2;ratioP2
53525;SDS011;40551;50.478;19.378;2023-08-07T00:01:14;9.00;;;3.10;;
53525;SDS011;40551;50.478;19.378;2023-08-07T00:03:46;6.20;;;2.70;;
53525;SDS011;40551;50.478;19.378;2023-08-07T00:06:17;5.50;;;2.40;;
53525;SDS011;40551;50.478;19.378;2023-08-07T00:08:49;8.60;;;2.80;;
53525;SDS011;40551;50.478;19.378;2023-08-07T00:11:20;8.00;;;3.00;;
53525;SDS011;40551;50.478;19.378;2023-08-07T00:13:52;7.70;;;2.60;;
53525;SDS011;40551;50.478;19.378;2023-08-07T00:16:24;6.90;;;2.90;;
53525;SDS011;40551;50.478;19.378;2023-08-07T00:18:55;6.70;;;3.00;;
53525;SDS011;40551;50.478;19.378;2023-08-07T00:21:27;7.40;;;2.80;;
53525;SDS011;40551;50.478;19.378;2023-08-07T00:23:59;9.10;;;3.10;;
53525;SDS011;40551;50.478;19.378;2023-08-07T00:26:30;8.70;;;2.80;;
53525;SDS011;40551;50.478;19.378;2023-08-07T00:29:02;14.40;;;3.40;;
53525;SDS011;40551;50.478;19.378;2023-08-07T00:31:34;9.80;;;2.90;;
53525;SDS011;40551;50.478;19.378;2023-08-07T00:34:06;8.70;;;3.00;;
53525;SDS011;40551;50.478;19.378;2023-08-07T00:36:38;7.40;;;2.70;;
53525;SDS011;40551;50.478;19.378;2023-08-07T00:41:41;7.90;;;3.00;;
53525;SDS011;40551;50.478;19.378;2023-08-07T00:44:13;9.30;;;3.10;;
53525;SDS011;40551;50.478;19.378;2023-08-07T00:46:45;7.40;;;2.90;;
53525;SDS011;40551;50.478;19.378;2023-08-07T00:49:17;7.20;;;3.20;;
53525;SDS011;40551;50.478;19.378;2023-08-07T00:51:50;7.80;;;3.90;;
53525;SDS011;40551;50.478;19.378;2023-08-07T00:54:22;11.10;;;3.20;;
53525;SDS011;40551;50.478;19.378;2023-08-07T00:56:55;6.90;;;2.80;;
53525;SDS011;40551;50.478;19.378;2023-08-07T00:59:32;8.30;;;2.80;;
53525;SDS011;40551;50.478;19.378;2023-08-07T01:02:04;5.50;;;2.80;;
53525;SDS011;40551;50.478;19.378;2023-08-07T01:04:37;7.60;;;2.90;;
53525;SDS011;40551;50.478;19.378;2023-08-07T01:07:09;9.40;;;3.00;;
53525;SDS011;40551;50.478;19.378;2023-08-07T01:09:41;8.20;;;3.30;;
53525;SDS011;40551;50.478;19.378;2023-08-07T01:12:14;8.90;;;3.00;;
53525;SDS011;40551;50.478;19.378;2023-08-07T01:14:51;6.90;;;2.80;;
53525;SDS011;40551;50.478;19.378;2023-08-07T01:17:28;6.90;;;3.10;;
53525;SDS011;40551;50.478;19.378;2023-08-07T01:20:03;6.80;;;2.90;;
53525;SDS011;40551;50.478;19.378;2023-08-07T01:22:36;7.80;;;3.40;;
53525;SDS011;40551;50.478;19.378;2023-08-07T01:25:08;12.80;;;3.10;;
53525;SDS011;40551;50.478;19.378;2023-08-07T01:27:42;12.10;;;3.50;;
53525;SDS011;40551;50.478;19.378;2023-08-07T01:30:22;9.20;;;3.40;;
53525;SDS011;40551;50.478;19.378;2023-08-07T01:33:03;14.60;;;4.30;;
53525;SDS011;40551;50.478;19.378;2023-08-07T01:35:40;9.20;;;4.20;;
53525;SDS011;40551;50.478;19.378;2023-08-07T01:38:13;8.60;;;4.40;;
53525;SDS011;40551;50.478;19.378;2023-08-07T01:40:46;10.20;;;4.40;;
53525;SDS011;40551;50.478;19.378;2023-08-07T01:43:20;9.10;;;4.20;;
53525;SDS011;40551;50.478;19.378;2023-08-07T01:45:52;10.50;;;4.60;;
53525;SDS011;40551;50.478;19.378;2023-08-07T01:48:24;14.80;;;5.30;;
53525;SDS011;40551;50.478;19.378;2023-08-07T01:50:56;12.20;;;4.90;;
53525;SDS011;40551;50.478;19.378;2023-08-07T01:53:27;6.50;;;4.60;;
53525;SDS011;40551;50.478;19.378;2023-08-07T01:55:59;8.70;;;4.10;;
53525;SDS011;40551;50.478;19.378;2023-08-07T01:58:31;9.10;;;5.10;;
53525;SDS011;40551;50.478;19.378;2023-08-07T02:01:03;9.60;;;4.90;;
53525;SDS011;40551;50.478;19.378;2023-08-07T02:03:35;9.50;;;4.90;;
53525;SDS011;40551;50.478;19.378;2023-08-07T02:06:07;9.00;;;4.70;;
53525;SDS011;40551;50.478;19.378;2023-08-07T02:11:08;10.50;;;4.60;;
53525;SDS011;40551;50.478;19.378;2023-08-07T02:16:10;11.60;;;4.60;;
53525;SDS011;40551;50.478;19.378;2023-08-07T02:18:42;7.80;;;5.00;;
53525;SDS011;40551;50.478;19.378;2023-08-07T02:21:14;7.80;;;4.80;;
53525;SDS011;40551;50.478;19.378;2023-08-07T02:23:45;10.30;;;4.80;;
53525;SDS011;40551;50.478;19.378;2023-08-07T02:26:17;7.80;;;4.70;;
53525;SDS011;40551;50.478;19.378;2023-08-07T02:28:49;7.60;;;4.60;;
53525;SDS011;40551;50.478;19.378;2023-08-07T02:31:21;8.00;;;4.50;;
53525;SDS011;40551;50.478;19.378;2023-08-07T02:33:52;11.80;;;4.70;;
53525;SDS011;40551;50.478;19.378;2023-08-07T02:38:54;10.40;;;4.40;;
53525;SDS011;40551;50.478;19.378;2023-08-07T02:41:26;8.70;;;4.20;;
53525;SDS011;40551;50.478;19.378;2023-08-07T02:43:57;12.60;;;4.20;;
53525;SDS011;40551;50.478;19.378;2023-08-07T02:46:29;12.50;;;4.60;;
53525;SDS011;40551;50.478;19.378;2023-08-07T02:49:01;10.40;;;5.00;;
53525;SDS011;40551;50.478;19.378;2023-08-07T02:51:33;10.60;;;6.20;;
53525;SDS011;40551;50.478;19.378;2023-08-07T02:54:05;9.70;;;5.90;;
53525;SDS011;40551;50.478;19.378;2023-08-07T02:56:37;11.10;;;5.20;;
53525;SDS011;40551;50.478;19.378;2023-08-07T02:59:08;7.80;;;5.00;;
53525;SDS011;40551;50.478;19.378;2023-08-07T03:01:40;11.40;;;8.00;;
53525;SDS011;40551;50.478;19.378;2023-08-07T03:04:12;12.00;;;9.20;;
53525;SDS011;40551;50.478;19.378;2023-08-07T03:06:44;13.40;;;7.60;;
53525;SDS011;40551;50.478;19.378;2023-08-07T03:09:15;9.60;;;7.80;;
53525;SDS011;40551;50.478;19.378;2023-08-07T03:11:47;11.70;;;10.50;;
53525;SDS011;40551;50.478;19.378;2023-08-07T03:14:18;12.40;;;11.20;;
53525;SDS011;40551;50.478;19.378;2023-08-07T03:19:20;15.60;;;14.20;;
53525;SDS011;40551;50.478;19.378;2023-08-07T03:21:52;19.30;;;15.10;;
53525;SDS011;40551;50.478;19.378;2023-08-07T03:24:24;15.40;;;13.90;;
53525;SDS011;40551;50.478;19.378;2023-08-07T03:26:56;14.20;;;12.80;;
53525;SDS011;40551;50.478;19.378;2023-08-07T03:29:28;16.80;;;13.20;;
53525;SDS011;40551;50.478;19.378;2023-08-07T03:32:00;15.40;;;13.70;;
53525;SDS011;40551;50.478;19.378;2023-08-07T03:34:32;14.00;;;12.40;;
53525;SDS011;40551;50.478;19.378;2023-08-07T03:37:04;18.10;;;12.70;;
53525;SDS011;40551;50.478;19.378;2023-08-07T03:39:36;13.40;;;12.10;;
53525;SDS011;40551;50.478;19.378;2023-08-07T03:42:08;14.40;;;13.00;;
53525;SDS011;40551;50.478;19.378;2023-08-07T03:44:39;14.00;;;12.60;;
53525;SDS011;40551;50.478;19.378;2023-08-07T03:47:13;15.60;;;13.70;;
53525;SDS011;40551;50.478;19.378;2023-08-07T03:49:45;15.70;;;14.20;;
53525;SDS011;40551;50.478;19.378;2023-08-07T03:52:16;15.90;;;14.20;;
53525;SDS011;40551;50.478;19.378;2023-08-07T03:54:48;15.30;;;13.70;;
53525;SDS011;40551;50.478;19.378;2023-08-07T03:57:20;19.80;;;15.80;;
53525;SDS011;40551;50.478;19.378;2023-08-07T03:59:52;16.90;;;15.30;;
53525;SDS011;40551;50.478;19.378;2023-08-07T04:02:24;18.40;;;16.70;;
53525;SDS011;40551;50.478;19.378;2023-08-07T04:04:57;18.00;;;14.80;;
53525;SDS011;40551;50.478;19.378;2023-08-07T04:07:28;17.30;;;14.10;;
53525;SDS011;40551;50.478;19.378;2023-08-07T04:10:00;17.70;;;16.20;;
53525;SDS011;40551;50.478;19.378;2023-08-07T04:12:32;19.10;;;17.20;;
53525;SDS011;40551;50.478;19.378;2023-08-07T04:15:04;19.40;;;17.40;;
53525;SDS011;40551;50.478;19.378;2023-08-07T04:17:37;18.50;;;16.70;;
53525;SDS011;40551;50.478;19.378;2023-08-07T04:20:10;16.50;;;15.00;;
53525;SDS011;40551;50.478;19.378;2023-08-07T04:22:42;17.30;;;15.80;;
53525;SDS011;40551;50.478;19.378;2023-08-07T04:25:14;18.30;;;16.40;;
53525;SDS011;40551;50.478;19.378;2023-08-07T04:27:46;17.90;;;16.20;;
53525;SDS011;40551;50.478;19.378;2023-08-07T04:30:17;18.90;;;16.00;;
53525;SDS011;40551;50.478;19.378;2023-08-07T04:32:49;16.20;;;14.80;;
53525;SDS011;40551;50.478;19.378;2023-08-07T04:35:20;17.60;;;13.80;;
53525;SDS011;40551;50.478;19.378;2023-08-07T04:37:52;13.80;;;12.40;;
53525;SDS011;40551;50.478;19.378;2023-08-07T04:40:24;13.30;;;12.10;;
53525;SDS011;40551;50.478;19.378;2023-08-07T04:42:56;12.10;;;10.80;;
53525;SDS011;40551;50.478;19.378;2023-08-07T04:45:27;12.00;;;10.90;;
53525;SDS011;40551;50.478;19.378;2023-08-07T04:50:30;12.60;;;10.30;;
53525;SDS011;40551;50.478;19.378;2023-08-07T04:53:01;11.00;;;9.40;;
53525;SDS011;40551;50.478;19.378;2023-08-07T04:55:33;9.90;;;8.90;;
53525;SDS011;40551;50.478;19.378;2023-08-07T05:00:35;9.30;;;8.30;;
53525;SDS011;40551;50.478;19.378;2023-08-07T05:03:07;8.60;;;7.60;;
53525;SDS011;40551;50.478;19.378;2023-08-07T05:05:39;9.70;;;8.10;;
53525;SDS011;40551;50.478;19.378;2023-08-07T05:08:10;8.40;;;7.10;;
53525;SDS011;40551;50.478;19.378;2023-08-07T05:10:42;11.50;;;7.70;;
53525;SDS011;40551;50.478;19.378;2023-08-07T05:15:46;9.70;;;7.40;;
53525;SDS011;40551;50.478;19.378;2023-08-07T05:18:18;10.60;;;7.20;;
53525;SDS011;40551;50.478;19.378;2023-08-07T05:20:50;7.50;;;6.30;;
53525;SDS011;40551;50.478;19.378;2023-08-07T05:23:21;10.80;;;7.80;;
53525;SDS011;40551;50.478;19.378;2023-08-07T05:25:53;10.00;;;6.90;;
53525;SDS011;40551;50.478;19.378;2023-08-07T05:28:25;14.10;;;7.00;;
53525;SDS011;40551;50.478;19.378;2023-08-07T05:30:57;8.00;;;6.80;;
53525;SDS011;40551;50.478;19.378;2023-08-07T05:33:29;8.60;;;6.50;;
53525;SDS011;40551;50.478;19.378;2023-08-07T05:36:00;9.30;;;6.40;;
53525;SDS011;40551;50.478;19.378;2023-08-07T05:38:34;7.60;;;5.60;;
53525;SDS011;40551;50.478;19.378;2023-08-07T05:41:06;8.20;;;5.90;;
53525;SDS011;40551;50.478;19.378;2023-08-07T05:43:38;7.10;;;4.90;;
53525;SDS011;40551;50.478;19.378;2023-08-07T05:46:09;7.70;;;5.10;;
53525;SDS011;40551;50.478;19.378;2023-08-07T05:48:41;8.10;;;4.50;;
53525;SDS011;40551;50.478;19.378;2023-08-07T05:51:13;7.80;;;4.70;;
53525;SDS011;40551;50.478;19.378;2023-08-07T05:53:44;6.00;;;4.00;;
53525;SDS011;40551;50.478;19.378;2023-08-07T05:56:16;7.10;;;3.80;;
53525;SDS011;40551;50.478;19.378;2023-08-07T05:58:48;7.80;;;4.00;;
53525;SDS011;40551;50.478;19.378;2023-08-07T06:01:19;8.10;;;3.90;;
53525;SDS011;40551;50.478;19.378;2023-08-07T06:03:52;6.90;;;3.80;;
53525;SDS011;40551;50.478;19.378;2023-08-07T06:06:24;8.70;;;3.90;;
53525;SDS011;40551;50.478;19.378;2023-08-07T06:08:56;7.60;;;3.60;;
53525;SDS011;40551;50.478;19.378;2023-08-07T06:11:29;6.40;;;3.70;;
53525;SDS011;40551;50.478;19.378;2023-08-07T06:14:01;5.30;;;3.20;;
53525;SDS011;40551;50.478;19.378;2023-08-07T06:16:32;7.90;;;3.60;;
53525;SDS011;40551;50.478;19.378;2023-08-07T06:19:04;7.10;;;3.50;;
53525;SDS011;40551;50.478;19.378;2023-08-07T06:21:53;8.20;;;3.30;;
53525;SDS011;40551;50.478;19.378;2023-08-07T06:24:25;7.60;;;3.20;;
53525;SDS011;40551;50.478;19.378;2023-08-07T06:26:57;8.90;;;3.30;;
53525;SDS011;40551;50.478;19.378;2023-08-07T06:29:29;5.20;;;2.80;;
53525;SDS011;40551;50.478;19.378;2023-08-07T06:32:00;6.80;;;3.20;;
53525;SDS011;40551;50.478;19.378;2023-08-07T06:34:33;7.80;;;3.30;;
53525;SDS011;40551;50.478;19.378;2023-08-07T06:37:07;6.50;;;3.50;;
53525;SDS011;40551;50.478;19.378;2023-08-07T06:39:39;7.60;;;4.00;;
53525;SDS011;40551;50.478;19.378;2023-08-07T06:42:10;6.00;;;3.10;;
53525;SDS011;40551;50.478;19.378;2023-08-07T06:44:43;5.00;;;2.70;;
53525;SDS011;40551;50.478;19.378;2023-08-07T06:47:15;5.00;;;2.70;;
53525;SDS011;40551;50.478;19.378;2023-08-07T06:49:47;5.40;;;2.80;;
53525;SDS011;40551;50.478;19.378;2023-08-07T06:52:19;5.60;;;2.70;;
53525;SDS011;40551;50.478;19.378;2023-08-07T06:54:50;7.20;;;2.70;;
53525;SDS011;40551;50.478;19.378;2023-08-07T06:57:22;7.80;;;2.90;;
53525;SDS011;40551;50.478;19.378;2023-08-07T06:59:54;5.00;;;2.80;;
53525;SDS011;40551;50.478;19.378;2023-08-07T07:02:25;5.10;;;2.60;;
53525;SDS011;40551;50.478;19.378;2023-08-07T07:04:57;6.40;;;2.80;;
53525;SDS011;40551;50.478;19.378;2023-08-07T07:07:29;5.30;;;2.60;;
53525;SDS011;40551;50.478;19.378;2023-08-07T07:10:00;4.40;;;2.40;;
53525;SDS011;40551;50.478;19.378;2023-08-07T07:12:32;5.10;;;2.60;;
53525;SDS011;40551;50.478;19.378;2023-08-07T07:15:05;4.50;;;2.50;;
53525;SDS011;40551;50.478;19.378;2023-08-07T07:17:38;6.40;;;2.60;;
53525;SDS011;40551;50.478;19.378;2023-08-07T07:20:10;6.20;;;2.40;;
53525;SDS011;40551;50.478;19.378;2023-08-07T07:22:42;6.20;;;2.20;;
53525;SDS011;40551;50.478;19.378;2023-08-07T07:27:44;9.50;;;2.80;;
53525;SDS011;40551;50.478;19.378;2023-08-07T07:30:16;4.50;;;2.20;;
53525;SDS011;40551;50.478;19.378;2023-08-07T07:32:47;5.90;;;2.40;;
53525;SDS011;40551;50.478;19.378;2023-08-07T07:35:20;7.80;;;2.50;;
53525;SDS011;40551;50.478;19.378;2023-08-07T07:37:51;5.60;;;2.40;;
53525;SDS011;40551;50.478;19.378;2023-08-07T07:42:53;5.70;;;2.80;;
53525;SDS011;40551;50.478;19.378;2023-08-07T07:45:24;5.50;;;2.30;;
53525;SDS011;40551;50.478;19.378;2023-08-07T07:47:56;5.30;;;2.30;;
53525;SDS011;40551;50.478;19.378;2023-08-07T07:50:28;4.80;;;2.30;;
53525;SDS011;40551;50.478;19.378;2023-08-07T07:52:59;4.70;;;2.30;;
53525;SDS011;40551;50.478;19.378;2023-08-07T07:55:31;5.20;;;2.50;;
53525;SDS011;40551;50.478;19.378;2023-08-07T07:58:03;5.10;;;2.80;;
53525;SDS011;40551;50.478;19.378;2023-08-07T08:00:35;6.50;;;2.90;;
53525;SDS011;40551;50.478;19.378;2023-08-07T08:03:06;6.40;;;2.90;;
53525;SDS011;40551;50.478;19.378;2023-08-07T08:05:39;5.50;;;2.90;;
53525;SDS011;40551;50.478;19.378;2023-08-07T08:08:11;6.70;;;3.10;;
53525;SDS011;40551;50.478;19.378;2023-08-07T08:10:42;5.70;;;3.10;;
53525;SDS011;40551;50.478;19.378;2023-08-07T08:13:16;6.00;;;3.10;;
53525;SDS011;40551;50.478;19.378;2023-08-07T08:15:47;7.00;;;2.90;;
53525;SDS011;40551;50.478;19.378;2023-08-07T08:18:19;5.50;;;3.10;;
53525;SDS011;40551;50.478;19.378;2023-08-07T08:20:51;7.30;;;3.20;;
53525;SDS011;40551;50.478;19.378;2023-08-07T08:23:23;4.80;;;2.80;;
53525;SDS011;40551;50.478;19.378;2023-08-07T08:25:55;6.20;;;3.00;;
53525;SDS011;40551;50.478;19.378;2023-08-07T08:28:27;6.10;;;2.90;;
53525;SDS011;40551;50.478;19.378;2023-08-07T08:30:59;6.10;;;3.00;;
53525;SDS011;40551;50.478;19.378;2023-08-07T08:33:30;7.20;;;3.00;;
53525;SDS011;40551;50.478;19.378;2023-08-07T08:36:02;7.20;;;3.30;;
53525;SDS011;40551;50.478;19.378;2023-08-07T08:38:34;6.90;;;3.50;;
53525;SDS011;40551;50.478;19.378;2023-08-07T08:41:06;6.60;;;3.30;;
53525;SDS011;40551;50.478;19.378;2023-08-07T08:43:39;7.30;;;3.20;;
53525;SDS011;40551;50.478;19.378;2023-08-07T08:46:13;6.90;;;3.00;;
53525;SDS011;40551;50.478;19.378;2023-08-07T08:48:50;5.90;;;3.10;;
53525;SDS011;40551;50.478;19.378;2023-08-07T08:51:26;5.90;;;3.30;;
53525;SDS011;40551;50.478;19.378;2023-08-07T08:53:58;5.70;;;3.00;;
53525;SDS011;40551;50.478;19.378;2023-08-07T08:56:31;5.80;;;2.90;;
53525;SDS011;40551;50.478;19.378;2023-08-07T08:59:03;6.40;;;3.00;;
53525;SDS011;40551;50.478;19.378;2023-08-07T09:01:35;6.30;;;3.00;;
53525;SDS011;40551;50.478;19.378;2023-08-07T09:04:08;6.90;;;3.00;;
53525;SDS011;40551;50.478;19.378;2023-08-07T09:06:40;6.10;;;2.70;;
53525;SDS011;40551;50.478;19.378;2023-08-07T09:09:12;5.40;;;2.90;;
53525;SDS011;40551;50.478;19.378;2023-08-07T09:11:46;5.40;;;3.00;;
53525;SDS011;40551;50.478;19.378;2023-08-07T09:14:20;6.40;;;3.40;;
53525;SDS011;40551;50.478;19.378;2023-08-07T09:16:54;6.30;;;3.10;;
53525;SDS011;40551;50.478;19.378;2023-08-07T09:19:28;6.70;;;4.10;;
53525;SDS011;40551;50.478;19.378;2023-08-07T09:22:00;8.40;;;4.30;;
53525;SDS011;40551;50.478;19.378;2023-08-07T09:24:32;6.40;;;4.40;;
53525;SDS011;40551;50.478;19.378;2023-08-07T09:27:04;7.80;;;4.70;;
53525;SDS011;40551;50.478;19.378;2023-08-07T09:29:39;7.60;;;4.20;;
53525;SDS011;40551;50.478;19.378;2023-08-07T09:32:13;6.60;;;4.00;;
53525;SDS011;40551;50.478;19.378;2023-08-07T09:34:47;5.80;;;3.70;;
53525;SDS011;40551;50.478;19.378;2023-08-07T09:37:21;7.70;;;3.70;;
53525;SDS011;40551;50.478;19.378;2023-08-07T09:39:53;8.30;;;3.90;;
53525;SDS011;40551;50.478;19.378;2023-08-07T09:42:24;6.90;;;3.50;;
53525;SDS011;40551;50.478;19.378;2023-08-07T09:45:00;6.10;;;3.40;;
53525;SDS011;40551;50.478;19.378;2023-08-07T09:47:32;6.30;;;3.90;;
53525;SDS011;40551;50.478;19.378;2023-08-07T09:50:06;6.50;;;3.60;;
53525;SDS011;40551;50.478;19.378;2023-08-07T09:52:47;8.70;;;3.60;;
53525;SDS011;40551;50.478;19.378;2023-08-07T09:55:19;6.20;;;3.20;;
53525;SDS011;40551;50.478;19.378;2023-08-07T09:57:51;6.50;;;3.70;;
53525;SDS011;40551;50.478;19.378;2023-08-07T10:00:23;7.40;;;3.70;;
53525;SDS011;40551;50.478;19.378;2023-08-07T10:02:55;11.70;;;9.70;;
53525;SDS011;40551;50.478;19.378;2023-08-07T10:05:27;70.80;;;63.50;;
53525;SDS011;40551;50.478;19.378;2023-08-07T10:08:00;139.20;;;105.10;;
53525;SDS011;40551;50.478;19.378;2023-08-07T10:10:33;26.80;;;21.70;;
53525;SDS011;40551;50.478;19.378;2023-08-07T10:13:05;19.50;;;15.00;;
53525;SDS011;40551;50.478;19.378;2023-08-07T10:15:37;7.90;;;3.70;;
53525;SDS011;40551;50.478;19.378;2023-08-07T10:18:11;6.00;;;2.60;;
53525;SDS011;40551;50.478;19.378;2023-08-07T10:20:42;7.90;;;6.40;;
53525;SDS011;40551;50.478;19.378;2023-08-07T10:23:15;6.50;;;3.60;;
53525;SDS011;40551;50.478;19.378;2023-08-07T10:25:47;8.20;;;2.70;;
53525;SDS011;40551;50.478;19.378;2023-08-07T10:28:22;5.70;;;2.60;;
53525;SDS011;40551;50.478;19.378;2023-08-07T10:30:58;6.10;;;2.70;;
53525;SDS011;40551;50.478;19.378;2023-08-07T10:33:30;7.90;;;2.60;;
53525;SDS011;40551;50.478;19.378;2023-08-07T10:36:09;6.20;;;3.10;;
53525;SDS011;40551;50.478;19.378;2023-08-07T10:38:41;7.00;;;2.70;;
53525;SDS011;40551;50.478;19.378;2023-08-07T10:41:13;6.10;;;2.80;;
53525;SDS011;40551;50.478;19.378;2023-08-07T10:43:47;6.80;;;3.00;;
53525;SDS011;40551;50.478;19.378;2023-08-07T10:46:20;6.10;;;3.30;;
53525;SDS011;40551;50.478;19.378;2023-08-07T10:48:55;6.80;;;3.10;;
53525;SDS011;40551;50.478;19.378;2023-08-07T10:51:29;6.30;;;3.20;;
53525;SDS011;40551;50.478;19.378;2023-08-07T10:54:01;6.50;;;3.20;;
53525;SDS011;40551;50.478;19.378;2023-08-07T10:56:34;7.50;;;3.30;;
53525;SDS011;40551;50.478;19.378;2023-08-07T10:59:10;6.60;;;3.30;;
53525;SDS011;40551;50.478;19.378;2023-08-07T11:01:42;6.40;;;3.40;;
53525;SDS011;40551;50.478;19.378;2023-08-07T11:04:21;8.70;;;3.30;;
53525;SDS011;40551;50.478;19.378;2023-08-07T11:06:55;6.70;;;3.00;;
53525;SDS011;40551;50.478;19.378;2023-08-07T11:09:27;6.00;;;3.30;;
53525;SDS011;40551;50.478;19.378;2023-08-07T11:11:59;6.50;;;3.40;;
53525;SDS011;40551;50.478;19.378;2023-08-07T11:14:31;7.00;;;3.10;;
53525;SDS011;40551;50.478;19.378;2023-08-07T11:17:04;7.30;;;3.60;;
53525;SDS011;40551;50.478;19.378;2023-08-07T11:19:36;7.20;;;3.40;;
53525;SDS011;40551;50.478;19.378;2023-08-07T11:22:08;6.20;;;3.20;;
53525;SDS011;40551;50.478;19.378;2023-08-07T11:24:40;7.60;;;3.60;;
53525;SDS011;40551;50.478;19.378;2023-08-07T11:27:12;6.70;;;3.10;;
53525;SDS011;40551;50.478;19.378;2023-08-07T11:29:47;6.30;;;3.20;;
53525;SDS011;40551;50.478;19.378;2023-08-07T11:32:19;7.70;;;3.50;;
53525;SDS011;40551;50.478;19.378;2023-08-07T11:34:52;8.00;;;3.90;;
53525;SDS011;40551;50.478;19.378;2023-08-07T11:37:23;7.20;;;3.50;;
53525;SDS011;40551;50.478;19.378;2023-08-07T11:40:00;7.40;;;3.50;;
53525;SDS011;40551;50.478;19.378;2023-08-07T11:42:32;8.00;;;3.50;;
53525;SDS011;40551;50.478;19.378;2023-08-07T11:45:05;7.30;;;3.30;;
53525;SDS011;40551;50.478;19.378;2023-08-07T11:47:38;6.30;;;3.00;;
53525;SDS011;40551;50.478;19.378;2023-08-07T11:50:11;6.80;;;3.20;;
53525;SDS011;40551;50.478;19.378;2023-08-07T11:52:42;5.70;;;2.90;;
53525;SDS011;40551;50.478;19.378;2023-08-07T11:55:15;5.90;;;2.90;;
53525;SDS011;40551;50.478;19.378;2023-08-07T11:57:47;6.50;;;2.60;;
53525;SDS011;40551;50.478;19.378;2023-08-07T12:00:19;8.80;;;3.10;;
53525;SDS011;40551;50.478;19.378;2023-08-07T12:02:55;7.10;;;3.20;;
53525;SDS011;40551;50.478;19.378;2023-08-07T12:05:27;9.80;;;3.10;;
53525;SDS011;40551;50.478;19.378;2023-08-07T12:08:08;6.80;;;3.10;;
53525;SDS011;40551;50.478;19.378;2023-08-07T12:10:41;7.20;;;3.30;;
53525;SDS011;40551;50.478;19.378;2023-08-07T12:13:13;8.50;;;3.20;;
53525;SDS011;40551;50.478;19.378;2023-08-07T12:15:44;8.20;;;3.20;;
53525;SDS011;40551;50.478;19.378;2023-08-07T12:18:17;7.10;;;3.20;;
53525;SDS011;40551;50.478;19.378;2023-08-07T12:20:50;6.70;;;3.20;;
53525;SDS011;40551;50.478;19.378;2023-08-07T12:23:22;10.80;;;3.50;;
53525;SDS011;40551;50.478;19.378;2023-08-07T12:25:54;8.00;;;3.20;;
53525;SDS011;40551;50.478;19.378;2023-08-07T12:28:26;7.10;;;3.50;;
53525;SDS011;40551;50.478;19.378;2023-08-07T12:30:57;7.10;;;3.50;;
53525;SDS011;40551;50.478;19.378;2023-08-07T12:33:29;8.50;;;3.80;;
53525;SDS011;40551;50.478;19.378;2023-08-07T12:36:01;8.20;;;3.40;;
53525;SDS011;40551;50.478;19.378;2023-08-07T12:38:46;10.00;;;3.80;;
53525;SDS011;40551;50.478;19.378;2023-08-07T12:41:18;7.10;;;3.40;;
53525;SDS011;40551;50.478;19.378;2023-08-07T12:43:53;7.20;;;3.60;;
53525;SDS011;40551;50.478;19.378;2023-08-07T12:46:24;8.80;;;4.00;;
53525;SDS011;40551;50.478;19.378;2023-08-07T12:48:59;7.60;;;3.90;;
53525;SDS011;40551;50.478;19.378;2023-08-07T12:51:32;8.20;;;3.70;;
53525;SDS011;40551;50.478;19.378;2023-08-07T12:54:03;11.20;;;3.90;;
53525;SDS011;40551;50.478;19.378;2023-08-07T12:56:35;8.50;;;4.20;;
53525;SDS011;40551;50.478;19.378;2023-08-07T12:59:07;6.90;;;3.80;;
53525;SDS011;40551;50.478;19.378;2023-08-07T13:01:38;7.60;;;4.00;;
53525;SDS011;40551;50.478;19.378;2023-08-07T13:04:10;9.50;;;3.90;;
53525;SDS011;40551;50.478;19.378;2023-08-07T13:06:44;8.00;;;4.30;;
53525;SDS011;40551;50.478;19.378;2023-08-07T13:09:18;9.00;;;3.80;;
53525;SDS011;40551;50.478;19.378;2023-08-07T13:11:50;7.50;;;3.90;;
53525;SDS011;40551;50.478;19.378;2023-08-07T13:14:22;8.00;;;4.10;;
53525;SDS011;40551;50.478;19.378;2023-08-07T13:16:53;7.70;;;4.40;;
53525;SDS011;40551;50.478;19.378;2023-08-07T13:19:25;10.40;;;4.20;;
53525;SDS011;40551;50.478;19.378;2023-08-07T13:24:27;7.60;;;4.30;;
53525;SDS011;40551;50.478;19.378;2023-08-07T13:26:59;7.40;;;4.30;;
53525;SDS011;40551;50.478;19.378;2023-08-07T13:29:32;7.40;;;4.30;;
53525;SDS011;40551;50.478;19.378;2023-08-07T13:32:05;6.90;;;4.00;;
53525;SDS011;40551;50.478;19.378;2023-08-07T13:34:38;8.40;;;4.10;;
53525;SDS011;40551;50.478;19.378;2023-08-07T13:37:10;9.60;;;3.90;;
53525;SDS011;40551;50.478;19.378;2023-08-07T13:39:41;9.10;;;4.20;;
53525;SDS011;40551;50.478;19.378;2023-08-07T13:42:13;9.00;;;4.30;;
53525;SDS011;40551;50.478;19.378;2023-08-07T13:44:44;9.70;;;4.70;;
53525;SDS011;40551;50.478;19.378;2023-08-07T13:47:16;8.30;;;4.10;;
53525;SDS011;40551;50.478;19.378;2023-08-07T13:49:49;10.50;;;4.70;;
53525;SDS011;40551;50.478;19.378;2023-08-07T13:52:22;13.20;;;4.50;;
53525;SDS011;40551;50.478;19.378;2023-08-07T13:54:53;8.30;;;4.10;;
53525;SDS011;40551;50.478;19.378;2023-08-07T13:57:25;9.50;;;4.00;;
53525;SDS011;40551;50.478;19.378;2023-08-07T13:59:56;12.00;;;4.30;;
53525;SDS011;40551;50.478;19.378;2023-08-07T14:02:28;7.20;;;4.20;;
53525;SDS011;40551;50.478;19.378;2023-08-07T14:05:01;8.00;;;4.20;;
53525;SDS011;40551;50.478;19.378;2023-08-07T14:07:33;9.60;;;5.00;;
53525;SDS011;40551;50.478;19.378;2023-08-07T14:10:05;9.70;;;4.40;;
53525;SDS011;40551;50.478;19.378;2023-08-07T14:12:37;8.80;;;4.80;;
53525;SDS011;40551;50.478;19.378;2023-08-07T14:15:10;9.70;;;5.00;;
53525;SDS011;40551;50.478;19.378;2023-08-07T14:17:41;7.90;;;4.80;;
53525;SDS011;40551;50.478;19.378;2023-08-07T14:20:13;9.40;;;5.30;;
53525;SDS011;40551;50.478;19.378;2023-08-07T14:22:45;9.10;;;5.60;;
53525;SDS011;40551;50.478;19.378;2023-08-07T14:25:17;9.90;;;5.60;;
53525;SDS011;40551;50.478;19.378;2023-08-07T14:27:50;9.60;;;5.20;;
53525;SDS011;40551;50.478;19.378;2023-08-07T14:30:22;11.40;;;5.90;;
53525;SDS011;40551;50.478;19.378;2023-08-07T14:32:54;9.30;;;5.70;;
53525;SDS011;40551;50.478;19.378;2023-08-07T14:35:26;10.10;;;5.30;;
53525;SDS011;40551;50.478;19.378;2023-08-07T14:37:58;9.90;;;5.30;;
53525;SDS011;40551;50.478;19.378;2023-08-07T14:40:29;9.40;;;4.90;;
53525;SDS011;40551;50.478;19.378;2023-08-07T14:43:01;7.80;;;4.80;;
53525;SDS011;40551;50.478;19.378;2023-08-07T14:45:33;8.70;;;4.40;;
53525;SDS011;40551;50.478;19.378;2023-08-07T14:48:06;9.20;;;4.80;;
53525;SDS011;40551;50.478;19.378;2023-08-07T14:50:37;7.60;;;3.90;;
53525;SDS011;40551;50.478;19.378;2023-08-07T14:53:09;9.00;;;4.20;;
53525;SDS011;40551;50.478;19.378;2023-08-07T14:55:40;7.70;;;3.90;;
53525;SDS011;40551;50.478;19.378;2023-08-07T14:58:13;6.90;;;3.90;;
53525;SDS011;40551;50.478;19.378;2023-08-07T15:00:45;8.20;;;4.10;;
53525;SDS011;40551;50.478;19.378;2023-08-07T15:03:18;10.20;;;4.70;;
53525;SDS011;40551;50.478;19.378;2023-08-07T15:05:50;10.90;;;4.80;;
53525;SDS011;40551;50.478;19.378;2023-08-07T15:08:21;8.70;;;5.30;;
53525;SDS011;40551;50.478;19.378;2023-08-07T15:10:53;8.20;;;4.80;;
53525;SDS011;40551;50.478;19.378;2023-08-07T15:13:25;7.80;;;4.70;;
53525;SDS011;40551;50.478;19.378;2023-08-07T15:15:56;8.30;;;4.60;;
53525;SDS011;40551;50.478;19.378;2023-08-07T15:18:28;8.60;;;5.10;;
53525;SDS011;40551;50.478;19.378;2023-08-07T15:21:00;7.20;;;4.20;;
53525;SDS011;40551;50.478;19.378;2023-08-07T15:23:31;7.90;;;4.70;;
53525;SDS011;40551;50.478;19.378;2023-08-07T15:26:03;8.10;;;4.00;;
53525;SDS011;40551;50.478;19.378;2023-08-07T15:28:35;8.70;;;4.20;;